createdAt,value
2017-10-16T00:00:50.322Z,11.97
2017-10-16T00:03:19.540Z,13.23
2017-10-16T00:05:48.780Z,11.53
2017-10-16T00:08:18.064Z,11.10
2017-10-16T00:10:47.343Z,12.90
2017-10-16T00:13:16.560Z,12.50
2017-10-16T00:15:45.805Z,12.93
2017-10-16T00:18:15.014Z,11.90
2017-10-16T00:20:44.224Z,12.43
2017-10-16T00:23:13.464Z,11.60
2017-10-16T00:25:42.773Z,12.73
2017-10-16T00:28:12.061Z,12.83
2017-10-16T00:30:41.303Z,13.10
2017-10-16T00:33:10.516Z,11.57
2017-10-16T00:35:39.745Z,12.87
2017-10-16T00:38:09.722Z,12.10
2017-10-16T00:40:39.028Z,13.40
2017-10-16T00:43:08.230Z,13.20
2017-10-16T00:45:38.522Z,11.30
2017-10-16T00:48:07.704Z,13.17
2017-10-16T00:50:36.889Z,12.07
2017-10-16T00:53:06.117Z,12.17
2017-10-16T00:55:35.340Z,12.77
2017-10-16T00:58:04.543Z,11.50
2017-10-16T01:00:33.772Z,12.17
2017-10-16T01:03:02.992Z,12.83
2017-10-16T01:05:32.209Z,13.00
2017-10-16T01:08:01.507Z,12.23
2017-10-16T01:10:30.752Z,13.73
2017-10-16T01:13:00.747Z,12.70
2017-10-16T01:15:29.963Z,12.83
2017-10-16T01:17:59.940Z,11.70
2017-10-16T01:20:29.963Z,12.20
2017-10-16T01:22:59.195Z,12.07
2017-10-16T01:25:28.462Z,12.90
2017-10-16T01:27:57.680Z,12.30
2017-10-16T01:30:27.684Z,12.83
2017-10-16T01:32:56.883Z,11.80
2017-10-16T01:35:26.100Z,11.90
2017-10-16T01:37:56.078Z,12.70
2017-10-16T01:40:25.303Z,11.60
2017-10-16T01:42:55.386Z,11.57
2017-10-16T01:45:24.619Z,12.80
2017-10-16T01:47:54.655Z,12.83
2017-10-16T01:50:23.899Z,12.80
2017-10-16T01:52:53.132Z,12.73
2017-10-16T01:55:22.341Z,12.17
2017-10-16T01:57:52.332Z,12.13
2017-10-16T02:00:22.317Z,12.20
2017-10-16T02:02:51.544Z,12.00
2017-10-16T02:05:20.754Z,12.47
2017-10-16T02:07:50.752Z,11.80
2017-10-16T02:10:19.949Z,12.97
2017-10-16T02:12:50.047Z,12.93
2017-10-16T02:15:19.252Z,12.10
2017-10-16T02:17:48.491Z,11.60
2017-10-16T02:20:18.454Z,11.67
2017-10-16T02:22:47.691Z,12.60
2017-10-16T02:25:17.714Z,13.57
2017-10-16T02:27:48.368Z,12.20
2017-10-16T02:30:17.595Z,12.63
2017-10-16T02:32:46.791Z,13.40
2017-10-16T02:35:16.817Z,12.17
2017-10-16T02:37:46.035Z,12.70
2017-10-16T02:40:15.249Z,12.50
2017-10-16T02:42:45.246Z,12.23
2017-10-16T02:45:14.485Z,12.40
2017-10-16T02:47:43.732Z,12.73
2017-10-16T02:50:12.975Z,13.57
2017-10-16T02:52:42.198Z,12.70
2017-10-16T02:55:11.418Z,12.10
2017-10-16T02:57:40.659Z,13.60
2017-10-16T03:00:10.656Z,12.40
2017-10-16T03:02:39.939Z,13.20
2017-10-16T03:05:09.209Z,11.97
2017-10-16T03:07:38.448Z,13.47
2017-10-16T03:10:07.675Z,12.90
2017-10-16T03:12:36.984Z,12.83
2017-10-16T03:15:06.218Z,12.20
2017-10-16T03:17:35.425Z,12.47
2017-10-16T03:20:04.651Z,13.43
2017-10-16T03:22:34.712Z,13.50
2017-10-16T03:25:03.940Z,13.03
2017-10-16T03:27:33.957Z,13.00
2017-10-16T03:30:03.164Z,13.27
2017-10-16T03:32:32.396Z,13.50
2017-10-16T03:35:02.375Z,14.73
2017-10-16T03:37:31.630Z,14.03
2017-10-16T03:40:00.860Z,14.37
2017-10-16T03:42:30.081Z,13.27
2017-10-16T03:44:59.343Z,12.70
2017-10-16T03:47:28.582Z,12.60
2017-10-16T03:49:58.560Z,13.90
2017-10-16T03:52:27.788Z,13.47
2017-10-16T03:54:56.999Z,12.60
2017-10-16T03:57:27.006Z,13.77
2017-10-16T03:59:56.239Z,12.97
2017-10-16T04:02:25.454Z,12.50
2017-10-16T04:04:54.699Z,13.70
2017-10-16T04:07:23.896Z,12.87
2017-10-16T04:09:53.908Z,13.67
2017-10-16T04:12:23.911Z,14.03
2017-10-16T04:14:53.188Z,13.30
2017-10-16T04:17:22.420Z,12.93
2017-10-16T04:19:51.635Z,13.50
2017-10-16T04:22:21.622Z,12.73
2017-10-16T04:24:50.863Z,13.10
2017-10-16T04:27:20.077Z,13.23
2017-10-16T04:29:49.347Z,12.00
2017-10-16T04:32:19.327Z,12.33
2017-10-16T04:34:48.540Z,12.67
2017-10-16T04:37:17.755Z,11.40
2017-10-16T04:39:47.811Z,13.20
2017-10-16T04:42:17.756Z,12.77
2017-10-16T04:44:46.988Z,12.30
2017-10-16T04:47:17.040Z,13.80
2017-10-16T04:49:46.247Z,13.37
2017-10-16T04:52:15.492Z,12.60
2017-10-16T04:54:45.475Z,12.90
2017-10-16T04:57:16.263Z,13.90
2017-10-16T04:59:45.423Z,13.03
2017-10-16T05:02:14.672Z,13.90
2017-10-16T05:04:43.871Z,13.60
2017-10-16T05:07:13.103Z,12.90
2017-10-16T05:09:42.323Z,13.93
2017-10-16T05:12:12.327Z,12.73
2017-10-16T05:14:41.544Z,13.47
2017-10-16T05:17:10.787Z,13.90
2017-10-16T05:19:39.992Z,13.17
2017-10-16T05:22:09.228Z,13.70
2017-10-16T05:24:38.438Z,12.83
2017-10-16T05:27:08.451Z,14.80
2017-10-16T05:29:38.496Z,12.63
2017-10-16T05:32:07.732Z,13.10
2017-10-16T05:34:37.033Z,12.73
2017-10-16T05:37:06.235Z,12.77
2017-10-16T05:39:35.496Z,12.27
2017-10-16T05:42:04.731Z,12.13
2017-10-16T05:44:33.964Z,13.07
2017-10-16T05:47:03.932Z,13.43
2017-10-16T05:49:33.204Z,13.50
2017-10-16T05:52:02.439Z,13.30
2017-10-16T05:54:31.651Z,13.57
2017-10-16T05:57:00.983Z,14.07
2017-10-16T05:59:30.208Z,12.97
2017-10-16T06:01:59.475Z,14.23
2017-10-16T06:04:29.539Z,13.57
2017-10-16T06:06:58.883Z,13.47
2017-10-16T06:09:28.851Z,13.93
2017-10-16T06:11:58.140Z,13.00
2017-10-16T06:14:27.435Z,13.10
2017-10-16T06:16:56.655Z,12.57
2017-10-16T06:19:25.893Z,15.00
2017-10-16T06:21:55.884Z,12.50
2017-10-16T06:24:26.100Z,12.67
2017-10-16T06:26:55.342Z,12.60
2017-10-16T06:29:25.454Z,12.53
2017-10-16T06:31:55.435Z,13.70
2017-10-16T06:34:24.674Z,12.67
2017-10-16T06:36:53.904Z,13.63
2017-10-16T06:39:23.138Z,12.73
2017-10-16T06:41:52.346Z,13.40
2017-10-16T06:44:21.552Z,12.47
2017-10-16T06:46:51.570Z,12.80
2017-10-16T06:49:20.788Z,12.40
2017-10-16T06:51:50.015Z,12.63
2017-10-16T06:54:19.223Z,13.27
2017-10-16T06:56:48.459Z,11.97
2017-10-16T06:59:18.428Z,12.47
2017-10-16T07:01:47.671Z,12.70
2017-10-16T07:04:17.635Z,13.17
2017-10-16T07:06:46.927Z,13.07
2017-10-16T07:09:16.174Z,11.77
2017-10-16T07:11:45.584Z,12.43
2017-10-16T07:14:15.608Z,13.10
2017-10-16T07:16:45.575Z,11.20
2017-10-16T07:19:14.908Z,11.87
2017-10-16T07:21:44.136Z,12.50
2017-10-16T07:24:13.466Z,11.83
2017-10-16T07:26:42.679Z,11.87
2017-10-16T07:29:11.931Z,12.37
2017-10-16T07:31:41.151Z,12.50
2017-10-16T07:34:10.370Z,11.50
2017-10-16T07:36:39.616Z,11.60
2017-10-16T07:39:09.631Z,13.30
2017-10-16T07:41:38.911Z,11.50
2017-10-16T07:44:08.144Z,12.23
2017-10-16T07:46:37.406Z,10.77
2017-10-16T07:49:07.455Z,12.10
2017-10-16T07:51:36.735Z,10.50
2017-10-16T07:54:05.939Z,12.40
2017-10-16T07:56:35.247Z,10.83
2017-10-16T07:59:05.231Z,11.10
2017-10-16T08:01:34.466Z,10.40
2017-10-16T08:04:03.688Z,10.70
2017-10-16T08:06:32.956Z,11.87
2017-10-16T08:09:02.951Z,11.53
2017-10-16T08:11:32.190Z,11.63
2017-10-16T08:14:01.443Z,10.83
2017-10-16T08:16:31.446Z,10.77
2017-10-16T08:19:00.686Z,10.40
2017-10-16T08:21:29.922Z,10.70
2017-10-16T08:23:59.133Z,11.10
2017-10-16T08:26:28.396Z,10.63
2017-10-16T08:28:57.626Z,10.50
2017-10-16T08:31:26.823Z,10.07
2017-10-16T08:33:56.125Z,9.43
2017-10-16T08:36:26.347Z,10.30
2017-10-16T08:38:55.623Z,9.80
2017-10-16T08:41:24.899Z,9.97
2017-10-16T08:43:54.111Z,10.20
2017-10-16T08:46:23.502Z,10.03
2017-10-16T08:48:52.748Z,10.50
2017-10-16T08:51:21.997Z,9.83
2017-10-16T08:53:51.220Z,9.30
2017-10-16T08:56:20.463Z,10.00
2017-10-16T08:58:50.452Z,10.10
2017-10-16T09:01:19.690Z,9.73
2017-10-16T09:03:49.756Z,9.93
2017-10-16T09:06:18.964Z,9.97
2017-10-16T09:08:48.164Z,9.87
2017-10-16T09:11:17.427Z,9.47
2017-10-16T09:13:46.636Z,9.87
2017-10-16T09:16:15.878Z,9.63
2017-10-16T09:18:45.227Z,10.53
2017-10-16T09:21:14.634Z,8.37
2017-10-16T09:23:43.879Z,10.20
2017-10-16T09:26:13.872Z,9.27
2017-10-16T09:28:44.372Z,9.00
2017-10-16T09:31:13.576Z,9.80
2017-10-16T09:33:42.904Z,8.57
2017-10-16T09:36:12.112Z,10.00
2017-10-16T09:38:45.970Z,9.23
2017-10-16T09:41:15.200Z,9.23
2017-10-16T09:43:44.443Z,9.60
2017-10-16T09:46:13.676Z,9.90
2017-10-16T09:48:42.920Z,8.90
2017-10-16T09:51:12.939Z,9.77
2017-10-16T09:53:42.925Z,10.03
2017-10-16T09:56:12.127Z,8.80
2017-10-16T09:58:41.523Z,8.90
2017-10-16T10:01:10.797Z,9.67
2017-10-16T10:03:40.009Z,9.60
2017-10-16T10:06:09.267Z,9.10
2017-10-16T10:08:38.531Z,8.40
2017-10-16T10:11:07.743Z,8.77
2017-10-16T10:13:37.728Z,9.40
2017-10-16T10:16:06.953Z,7.87
2017-10-16T10:18:36.915Z,7.67
2017-10-16T10:21:06.159Z,8.30
2017-10-16T10:23:36.165Z,8.97
2017-10-16T10:26:05.395Z,9.90
2017-10-16T10:28:35.402Z,9.40
2017-10-16T10:31:04.696Z,8.70
2017-10-16T10:33:34.717Z,7.80
2017-10-16T10:36:04.747Z,8.50
2017-10-16T10:38:33.975Z,8.57
2017-10-16T10:41:03.186Z,8.63
2017-10-16T10:43:32.419Z,8.40
2017-10-16T10:46:02.479Z,8.17
2017-10-16T10:48:31.710Z,8.07
2017-10-16T10:51:00.943Z,9.00
2017-10-16T10:53:30.938Z,8.60
2017-10-16T10:56:00.148Z,7.63
2017-10-16T10:58:30.143Z,8.50
2017-10-16T11:00:59.363Z,8.13
2017-10-16T11:03:28.808Z,8.67
2017-10-16T11:05:58.776Z,7.23
2017-10-16T11:08:27.976Z,8.23
2017-10-16T11:10:57.980Z,7.27
2017-10-16T11:13:27.196Z,8.13
2017-10-16T11:15:57.244Z,8.30
2017-10-16T11:18:26.447Z,7.47
2017-10-16T11:20:55.697Z,6.53
2017-10-16T11:23:24.980Z,7.53
2017-10-16T11:25:54.292Z,8.10
2017-10-16T11:28:23.494Z,7.77
2017-10-16T11:30:53.535Z,7.40
2017-10-16T11:33:22.749Z,7.40
2017-10-16T11:35:51.964Z,7.23
2017-10-16T11:38:21.160Z,7.90
2017-10-16T11:40:50.449Z,7.30
2017-10-16T11:43:19.655Z,6.47
2017-10-16T11:45:48.875Z,6.80
2017-10-16T11:48:18.149Z,7.60
2017-10-16T11:50:47.354Z,7.00
2017-10-16T11:53:16.594Z,7.50
2017-10-16T11:55:46.574Z,6.80
2017-10-16T11:58:15.803Z,6.90
2017-10-16T12:00:45.760Z,6.53
2017-10-16T12:03:15.004Z,7.27
2017-10-16T12:05:44.212Z,7.43
2017-10-16T12:08:13.541Z,6.67
2017-10-16T12:10:43.516Z,6.43
2017-10-16T12:13:12.748Z,7.43
2017-10-16T12:15:42.710Z,7.03
2017-10-16T12:18:11.960Z,7.17
2017-10-16T12:20:41.912Z,6.70
2017-10-16T12:23:11.140Z,7.10
2017-10-16T12:25:40.531Z,6.47
2017-10-16T12:28:09.765Z,7.20
2017-10-16T12:30:39.735Z,6.77
2017-10-16T12:33:08.954Z,8.00
2017-10-16T12:35:38.191Z,7.60
2017-10-16T12:38:07.376Z,6.43
2017-10-16T12:40:36.695Z,7.63
2017-10-16T12:43:05.925Z,7.60
2017-10-16T12:45:35.175Z,7.80
2017-10-16T12:48:04.519Z,8.03
2017-10-16T12:50:33.705Z,7.50
2017-10-16T12:53:02.957Z,6.97
2017-10-16T12:55:32.133Z,7.63
2017-10-16T12:58:01.372Z,7.03
2017-10-16T13:00:30.600Z,6.77
2017-10-16T13:02:59.828Z,8.70
2017-10-16T13:05:29.024Z,6.70
2017-10-16T13:07:58.242Z,7.70
2017-10-16T13:10:28.255Z,7.00
2017-10-16T13:12:58.225Z,7.70
2017-10-16T13:15:27.525Z,6.77
2017-10-16T13:17:56.764Z,6.80
2017-10-16T13:20:26.032Z,7.77
2017-10-16T13:22:55.252Z,7.10
2017-10-16T13:25:24.531Z,6.57
2017-10-16T13:27:53.706Z,6.87
2017-10-16T13:30:22.923Z,6.90
2017-10-16T13:32:52.179Z,6.60
2017-10-16T13:35:22.503Z,6.83
2017-10-16T13:37:51.713Z,7.23
2017-10-16T13:40:21.270Z,6.80
2017-10-16T13:42:50.531Z,7.10
2017-10-16T13:45:19.738Z,6.63
2017-10-16T13:47:48.958Z,6.50
2017-10-16T13:50:18.189Z,6.43
2017-10-16T13:52:48.172Z,6.50
2017-10-16T13:55:18.268Z,6.77
2017-10-16T13:57:48.253Z,6.70
2017-10-16T14:00:17.445Z,6.87
2017-10-16T14:02:46.676Z,6.93
2017-10-16T14:05:15.911Z,6.60
2017-10-16T14:07:45.403Z,7.00
2017-10-16T14:10:15.077Z,6.90
2017-10-16T14:12:44.368Z,5.70
2017-10-16T14:15:13.655Z,6.57
2017-10-16T14:17:42.874Z,7.40
2017-10-16T14:20:12.114Z,7.10
2017-10-16T14:22:41.310Z,6.30
2017-10-16T14:25:10.520Z,6.60
2017-10-16T14:27:40.544Z,6.33
2017-10-16T14:30:10.533Z,6.97
2017-10-16T14:32:39.731Z,7.20
2017-10-16T14:35:08.949Z,7.70
2017-10-16T14:37:38.968Z,8.40
2017-10-16T14:40:08.965Z,7.37
2017-10-16T14:42:38.237Z,7.27
2017-10-16T14:45:07.446Z,7.80
2017-10-16T14:47:36.696Z,7.73
2017-10-16T14:50:05.889Z,6.90
2017-10-16T14:52:35.915Z,8.43
2017-10-16T14:55:05.861Z,8.00
2017-10-16T14:57:35.195Z,7.50
2017-10-16T15:00:04.392Z,7.73
2017-10-16T15:02:34.432Z,7.30
2017-10-16T15:05:04.394Z,7.73
2017-10-16T15:07:33.620Z,7.70
2017-10-16T15:10:02.835Z,7.70
2017-10-16T15:12:32.798Z,7.40
2017-10-16T15:15:02.031Z,8.63
2017-10-16T15:17:31.228Z,6.93
2017-10-16T15:20:00.477Z,8.20
2017-10-16T15:22:29.708Z,9.10
2017-10-16T15:24:58.933Z,8.30
2017-10-16T15:27:28.927Z,8.50
2017-10-16T15:29:58.181Z,8.13
2017-10-16T15:32:27.371Z,7.87
2017-10-16T15:34:56.620Z,7.67
2017-10-16T15:37:25.859Z,7.50
2017-10-16T15:39:55.068Z,7.53
2017-10-16T15:42:24.315Z,7.13
2017-10-16T15:44:53.511Z,7.13
2017-10-16T15:47:22.756Z,7.70
2017-10-16T15:49:55.018Z,6.53
2017-10-16T15:52:24.260Z,7.23
2017-10-16T15:54:53.449Z,6.33
2017-10-16T15:57:22.669Z,6.80
2017-10-16T15:59:51.869Z,8.20
2017-10-16T16:02:21.101Z,7.73
2017-10-16T16:04:51.101Z,7.13
2017-10-16T16:07:20.444Z,7.13
2017-10-16T16:09:49.687Z,8.27
2017-10-16T16:12:18.903Z,8.30
2017-10-16T16:14:48.910Z,8.20
2017-10-16T16:17:18.962Z,7.70
2017-10-16T16:19:48.247Z,8.30
2017-10-16T16:22:17.487Z,8.23
2017-10-16T16:24:46.777Z,9.77
2017-10-16T16:27:15.968Z,8.83
2017-10-16T16:29:45.191Z,8.73
2017-10-16T16:32:14.415Z,8.60
2017-10-16T16:34:44.411Z,9.60
2017-10-16T16:37:13.664Z,9.67
2017-10-16T16:39:42.919Z,9.70
2017-10-16T16:42:12.153Z,9.50
2017-10-16T16:44:41.392Z,9.40
2017-10-16T16:47:10.639Z,9.10
2017-10-16T16:49:40.701Z,8.83
2017-10-16T16:52:09.963Z,8.00
2017-10-16T16:54:40.051Z,8.33
2017-10-16T16:57:10.025Z,9.17
2017-10-16T16:59:39.270Z,8.30
2017-10-16T17:02:08.505Z,8.50
2017-10-16T17:04:37.731Z,8.87
2017-10-16T17:07:06.940Z,8.63
2017-10-16T17:09:36.271Z,8.50
2017-10-16T17:12:05.537Z,8.67
2017-10-16T17:14:34.806Z,8.70
2017-10-16T17:17:04.137Z,8.37
2017-10-16T17:19:33.362Z,8.93
2017-10-16T17:22:03.352Z,8.97
2017-10-16T17:24:32.636Z,8.80
2017-10-16T17:27:01.944Z,9.10
2017-10-16T17:29:31.197Z,8.60
2017-10-16T17:32:00.401Z,8.63
2017-10-16T17:34:29.728Z,8.20
2017-10-16T17:36:58.970Z,8.10
2017-10-16T17:39:29.172Z,8.60
2017-10-16T17:41:58.408Z,8.80
2017-10-16T17:44:28.405Z,9.17
2017-10-16T17:46:58.412Z,8.80
2017-10-16T17:49:27.721Z,9.00
2017-10-16T17:51:57.697Z,8.37
2017-10-16T17:54:26.940Z,8.97
2017-10-16T17:56:56.931Z,8.50
2017-10-16T17:59:26.189Z,8.30
2017-10-16T18:01:55.406Z,8.70
2017-10-16T18:04:24.779Z,8.20
2017-10-16T18:06:54.012Z,8.50
2017-10-16T18:09:23.292Z,8.13
2017-10-16T18:11:52.505Z,7.60
2017-10-16T18:14:21.744Z,8.00
2017-10-16T18:16:51.725Z,7.40
2017-10-16T18:19:21.106Z,8.40
2017-10-16T18:21:50.384Z,7.30
2017-10-16T18:24:19.612Z,8.60
2017-10-16T18:26:48.967Z,8.37
2017-10-16T18:29:18.265Z,8.20
2017-10-16T18:31:48.340Z,8.27
2017-10-16T18:34:17.643Z,9.03
2017-10-16T18:36:46.847Z,8.10
2017-10-16T18:39:16.081Z,7.83
2017-10-16T18:41:45.346Z,8.13
2017-10-16T18:44:14.559Z,8.53
2017-10-16T18:46:44.563Z,8.53
2017-10-16T18:49:13.770Z,8.70
2017-10-16T18:51:43.214Z,8.50
2017-10-16T18:54:13.214Z,9.13
2017-10-16T18:56:42.570Z,9.13
2017-10-16T18:59:11.808Z,8.30
2017-10-16T19:01:41.885Z,9.10
2017-10-16T19:04:11.133Z,8.37
2017-10-16T19:06:40.551Z,8.90
2017-10-16T19:09:09.761Z,8.53
2017-10-16T19:11:38.970Z,8.57
2017-10-16T19:14:08.220Z,9.77
2017-10-16T19:16:38.239Z,9.60
2017-10-16T19:19:07.545Z,9.37
2017-10-16T19:21:36.779Z,9.47
2017-10-16T19:24:06.004Z,8.80
2017-10-16T19:26:35.511Z,10.10
2017-10-16T19:29:05.576Z,9.30
2017-10-16T19:31:34.819Z,9.73
2017-10-16T19:34:05.491Z,9.50
2017-10-16T19:36:34.719Z,10.10
2017-10-16T19:39:03.969Z,8.30
2017-10-16T19:41:33.976Z,9.10
2017-10-16T19:44:04.002Z,9.10
2017-10-16T19:46:34.045Z,9.57
2017-10-16T19:49:03.248Z,8.23
2017-10-16T19:51:32.625Z,9.50
2017-10-16T19:54:02.614Z,8.23
2017-10-16T19:56:31.883Z,8.07
2017-10-16T19:59:01.114Z,10.10
2017-10-16T20:01:30.340Z,9.23
2017-10-16T20:03:59.627Z,8.80
2017-10-16T20:06:29.738Z,9.03
2017-10-16T20:08:59.795Z,9.10
2017-10-16T20:11:29.030Z,9.40
2017-10-16T20:13:58.238Z,8.60
2017-10-16T20:16:28.314Z,9.80
2017-10-16T20:18:57.568Z,9.53
2017-10-16T20:21:27.538Z,8.83
2017-10-16T20:23:56.773Z,8.40
2017-10-16T20:26:26.760Z,8.43
2017-10-16T20:28:56.041Z,9.90
2017-10-16T20:31:25.290Z,8.70
2017-10-16T20:33:55.298Z,9.50
2017-10-16T20:36:25.309Z,11.13
2017-10-16T20:38:54.572Z,10.03
2017-10-16T20:41:23.765Z,10.50
2017-10-16T20:43:53.043Z,10.67
2017-10-16T20:46:22.229Z,10.30
2017-10-16T20:48:51.492Z,9.53
2017-10-16T20:51:20.699Z,9.00
2017-10-16T20:53:50.784Z,9.80
2017-10-16T20:56:20.000Z,9.50
2017-10-16T20:58:49.248Z,10.43
2017-10-16T21:01:18.498Z,12.00
2017-10-16T21:03:47.711Z,12.37
2017-10-16T21:06:16.958Z,11.77
2017-10-16T21:08:46.163Z,11.83
2017-10-16T21:11:15.388Z,11.57
2017-10-16T21:13:44.592Z,9.90
2017-10-16T21:16:13.833Z,9.57
2017-10-16T21:18:43.039Z,10.83
2017-10-16T21:21:12.259Z,10.70
2017-10-16T21:23:41.493Z,11.63
2017-10-16T21:26:11.520Z,11.23
2017-10-16T21:28:41.603Z,12.03
2017-10-16T21:31:10.827Z,11.13
2017-10-16T21:33:40.828Z,10.73
2017-10-16T21:36:10.095Z,11.90
2017-10-16T21:38:39.460Z,11.27
2017-10-16T21:41:08.716Z,11.10
2017-10-16T21:43:37.953Z,10.50
2017-10-16T21:46:08.131Z,10.47
2017-10-16T21:48:37.472Z,11.10
2017-10-16T21:51:07.481Z,10.40
2017-10-16T21:53:37.480Z,10.00
2017-10-16T21:56:08.191Z,10.57
2017-10-16T21:58:37.428Z,9.37
2017-10-16T22:01:07.404Z,10.77
2017-10-16T22:03:36.763Z,9.80
2017-10-16T22:06:06.765Z,10.40
2017-10-16T22:08:36.852Z,9.40
2017-10-16T22:11:06.323Z,11.00
2017-10-16T22:13:37.907Z,9.47
2017-10-16T22:16:07.243Z,9.93
2017-10-16T22:18:37.224Z,9.60
2017-10-16T22:21:06.452Z,9.10
2017-10-16T22:23:35.658Z,9.13
2017-10-16T22:26:05.624Z,9.07
2017-10-16T22:28:34.861Z,9.70
2017-10-16T22:31:04.847Z,9.47
2017-10-16T22:33:35.589Z,9.40
2017-10-16T22:36:04.799Z,9.80
2017-10-16T22:38:34.783Z,9.20
2017-10-16T22:41:03.988Z,9.17
2017-10-16T22:43:33.223Z,9.70
2017-10-16T22:46:03.212Z,9.37
2017-10-16T22:48:39.672Z,9.20
2017-10-16T22:51:10.754Z,9.00
2017-10-16T22:53:39.963Z,9.63
2017-10-16T22:56:09.190Z,9.57
2017-10-16T22:58:39.233Z,9.67
2017-10-16T23:01:08.480Z,9.37
2017-10-16T23:03:37.672Z,9.77
2017-10-16T23:06:06.884Z,9.97
2017-10-16T23:08:36.083Z,9.30
2017-10-16T23:11:05.311Z,9.33
2017-10-16T23:13:34.509Z,10.30
2017-10-16T23:16:05.351Z,9.83
2017-10-16T23:18:34.585Z,8.43
2017-10-16T23:21:03.892Z,9.80
2017-10-16T23:23:33.096Z,9.57
2017-10-16T23:26:02.296Z,9.93
2017-10-16T23:28:31.552Z,9.90
2017-10-16T23:31:00.774Z,9.87
2017-10-16T23:33:30.017Z,9.30
2017-10-16T23:35:59.198Z,9.90
2017-10-16T23:38:28.423Z,10.20
2017-10-16T23:40:57.621Z,9.70
2017-10-16T23:43:26.805Z,8.73
2017-10-16T23:45:56.019Z,9.47
2017-10-16T23:48:25.239Z,9.70
2017-10-16T23:50:55.263Z,9.90
2017-10-16T23:53:25.234Z,9.50
2017-10-16T23:55:54.472Z,8.50
2017-10-16T23:58:24.478Z,9.80
